메인 페이지
METAR-TAF:

METAR-TAF

공항 :

팔라우 국제공항

코로르, 바벨다오브 섬, 팔라우

위도: 07-22N, 경도: 134-32E, 고도: 54m

현재 날씨관측

예보는 58분 전, 19:50시(UTC)에 발표되었습니다.
무풍
온도 26°C
습도 94%
기압 1008 hPa
시정: 20.9km
고도 1500ft 상공 구름 보통, 적란운.
고도 29000ft 상공 구름 많음

METAR: PTRO 161950Z 00000KT 13SM SCT015CB BKN290 26/25 A2977 RMK CB ALQDS

시각: 05:48 (20:48 UTC)

예보

예보는 3 시간 21분 전, 17:27시(UTC)에 발표되었습니다.
예보 대상 시간: 16일 18시부터 17일 18시까지 (UTC)
6kt
시정: 10km
고도 900ft 상공 구름 조금
고도 1500ft 상공 구름 보통
고도 11000ft 상공 구름 많음
시계 내 소나기
일시적
16일 18시부터 16일 22시까지 (UTC)
고도 1500ft 상공 구름 많음

TAF: PTRO 161727Z 1618/1718 09006KT P6SM VCSH FEW009 SCT015 BKN110 TEMPO 1618/1622 BKN015

4,000개 이상의 공항 관측 자료 및 예보 (METAR 및 TAF 보고).

지도상에서 검색 가능한 기상관측소가 노란 점과 빨간 점으로 표시되어 있습니다.

기상관측소 명을 보려면 표시 위로 마우스를 이동하세요.

날씨 관측과 예보를 보려면 클릭하세요.

지도 변경 : 확대하려면 엑스 표시가 있는 녹색 버튼, 축소하려면 빼기 표시가 있는 녹색 버튼, 다음 페이지의 지도를 보려면 녹색 화살표를 클릭하세요.


METAR-TAF: